To NAV CANADA Home Page Login to a new session Search on AWWS site Feedback and Comments Disclaimer Vers la page française équivalente Tips FAQ What's new on the site To the Forecasts and Observations / NOTAM section To "File a Flight Plan" website Publications and other links Update of the User's profile FIC Telephone Numbers My Weather Data Folder Route Weather Data Regional Weather Data Local Weather Data To the Forecasts and Observations / NOTAM section
Request Generated 06/30/2015 at 14:24:48 UTC . Weather information available at that time is displayed.

METAR/TAF

LONDON/ON    

SPECI CYXU 301416Z 12004KT 15SM FEW008 BKN014 OVC023 17/16 A2982 RMK
CF1SC4SC3 SLP098 DENSITY ALT 1400FT=
METAR CYXU 301400Z 11004KT 12SM -SHRA FEW008 OVC023 17/16 A2982 RMK
CF1SC8 CF TR SHRA VRY LGT VIS E 6 CVCTV CLD EMBD SLP098 DENSITY ALT
1400FT=
METAR CYXU 301300Z 07003KT 12SM OVC028 17/16 A2983 RMK SC8 SLP099
DENSITY ALT 1400FT=
SPECI CYXU 301241Z 09005KT 10SM OVC027 16/16 A2982 RMK SC8 BR SLP097
DENSITY ALT 1300FT=
SPECI CYXU 301212Z 10007KT 4SM -SHRA BR OVC028 16/15 A2982 RMK SC8
CVCTV CLD EMBD SLP098 DENSITY ALT 1300FT=
METAR CYXU 301200Z 11008KT 2 1/2SM -SHRA BR OVC025 16/15 A2982 RMK
SC8 CVCTV CLD EMBD SLP098 DENSITY ALT 1300FT=

TAF CYXU 301138Z 3012/0112 09005KT P6SM SCT015 OVC030 TEMPO 3012/3015
5SM -RA -DZ BR BKN008 OVC015
FM301500 11006KT P6SM -SHRA OVC015 PROB30 3020/3024 2SM TSRA BR
BKN006 OVC015CB
FM010000 21005KT P6SM BKN030 PROB30 0103/0107 1SM TSRA BR BKN005
OVC012CB
FM010700 VRB03KT 1SM -RA BR OVC002
BECMG 0108/0110 35008KT
RMK NXT FCST BY 301800Z=
Your time UTC time
Weather data provided by Environment Canada and NAV CANADA